createdAt,value
2018-12-29T00:00:26.947Z,25.35
2018-12-29T00:02:34.143Z,25.22
2018-12-29T00:04:41.523Z,25.37
2018-12-29T00:06:48.720Z,25.39
2018-12-29T00:08:56.046Z,25.37
2018-12-29T00:11:03.649Z,25.16
2018-12-29T00:13:11.752Z,25.19
2018-12-29T00:15:18.994Z,25.16
2018-12-29T00:17:26.207Z,25.08
2018-12-29T00:19:34.039Z,25.01
2018-12-29T00:21:41.201Z,25.08
2018-12-29T00:23:48.508Z,24.97
2018-12-29T00:25:56.655Z,25.00
2018-12-29T02:06:42.158Z,21.87
2018-12-29T02:08:50.333Z,21.87
2018-12-29T02:10:57.465Z,22.20
2018-12-29T02:13:05.580Z,22.50
2018-12-29T02:15:13.528Z,22.81
2018-12-29T02:17:20.776Z,22.92
2018-12-29T02:19:29.474Z,23.05
2018-12-29T02:21:36.809Z,23.07
2018-12-29T02:23:43.996Z,23.22
2018-12-29T02:25:52.366Z,23.29
2018-12-29T02:27:59.970Z,23.43
2018-12-29T02:30:07.588Z,23.50
2018-12-29T02:32:14.931Z,23.66
2018-12-29T02:34:23.054Z,23.68
2018-12-29T02:36:31.818Z,23.78
2018-12-29T02:38:40.088Z,23.83
2018-12-29T02:40:47.368Z,23.80
2018-12-29T02:42:54.577Z,23.80
2018-12-29T02:45:01.862Z,23.85
2018-12-29T02:47:09.582Z,23.89
2018-12-29T02:49:16.781Z,23.87
2018-12-29T02:51:24.492Z,23.67
2018-12-29T02:53:31.845Z,23.57
2018-12-29T02:55:39.193Z,23.76
2018-12-29T02:57:46.616Z,23.84
2018-12-29T02:59:55.200Z,23.78
2018-12-29T03:02:02.579Z,23.80
2018-12-29T03:04:10.064Z,23.87
2018-12-29T03:06:17.626Z,23.90
2018-12-29T03:08:25.126Z,23.90
2018-12-29T03:10:32.392Z,23.90
2018-12-29T03:12:39.922Z,23.92
2018-12-29T03:14:47.964Z,23.92
2018-12-29T03:16:56.318Z,23.96
2018-12-29T03:19:03.586Z,23.95
2018-12-29T03:21:12.090Z,24.09
2018-12-29T03:23:19.473Z,24.11
2018-12-29T03:25:27.230Z,24.12
2018-12-29T03:27:36.238Z,24.11
2018-12-29T03:29:43.598Z,24.04
2018-12-29T03:31:50.928Z,24.14
2018-12-29T03:33:58.112Z,24.09
2018-12-29T03:36:05.522Z,24.04
2018-12-29T03:38:12.838Z,24.03
2018-12-29T03:40:20.751Z,24.18
2018-12-29T03:42:27.967Z,24.07
2018-12-29T03:44:36.092Z,24.04
2018-12-29T03:46:43.764Z,23.89
2018-12-29T03:48:50.927Z,23.98
2018-12-29T03:50:58.228Z,24.01
2018-12-29T03:53:05.334Z,23.90
2018-12-29T03:55:13.064Z,23.98
2018-12-29T03:57:20.288Z,23.97
2018-12-29T03:59:27.648Z,24.05
2018-12-29T04:01:34.912Z,24.07
2018-12-29T04:03:42.249Z,23.98
2018-12-29T04:05:49.342Z,24.14
2018-12-29T04:07:56.441Z,24.06
2018-12-29T04:10:04.222Z,24.02
2018-12-29T04:12:19.723Z,24.05
2018-12-29T04:14:27.878Z,24.14
2018-12-29T04:16:35.323Z,24.13
2018-12-29T04:18:43.483Z,24.17
2018-12-29T04:20:50.767Z,24.14
2018-12-29T04:22:58.012Z,24.13
2018-12-29T04:25:05.635Z,23.94
2018-12-29T04:27:13.543Z,24.05
2018-12-29T04:29:20.622Z,24.23
2018-12-29T04:31:27.897Z,24.11
2018-12-29T04:33:35.382Z,24.13
2018-12-29T04:35:43.134Z,24.10
2018-12-29T04:37:50.709Z,24.15
2018-12-29T04:39:57.991Z,24.09
2018-12-29T04:42:05.606Z,24.04
2018-12-29T04:44:12.899Z,23.90
2018-12-29T04:46:20.565Z,23.87
2018-12-29T04:48:27.677Z,23.87
2018-12-29T04:50:36.131Z,23.86
2018-12-29T04:52:43.512Z,23.76
2018-12-29T04:54:51.686Z,23.81
2018-12-29T04:56:58.781Z,23.76
2018-12-29T04:59:06.702Z,23.77
2018-12-29T05:01:13.987Z,23.62
2018-12-29T05:03:21.752Z,23.70
2018-12-29T05:05:30.032Z,23.79
2018-12-29T05:07:39.516Z,23.88
2018-12-29T05:09:46.617Z,23.96
2018-12-29T05:11:55.632Z,23.89
2018-12-29T05:14:03.231Z,23.68
2018-12-29T05:16:13.001Z,23.76
2018-12-29T05:18:19.627Z,23.85
2018-12-29T05:20:28.089Z,23.90
2018-12-29T05:24:47.988Z,23.86
2018-12-29T05:26:56.051Z,23.72
2018-12-29T05:29:03.618Z,23.74
2018-12-29T05:31:12.104Z,23.88
2018-12-29T05:33:19.227Z,23.84
2018-12-29T05:35:27.518Z,23.65
2018-12-29T05:37:35.089Z,23.74
2018-12-29T05:39:42.861Z,23.75
2018-12-29T05:41:50.265Z,23.73
2018-12-29T05:43:58.113Z,23.71
2018-12-29T05:46:06.418Z,23.70
2018-12-29T05:48:14.136Z,23.60
2018-12-29T05:50:21.129Z,23.50
2018-12-29T05:52:29.174Z,23.45
2018-12-29T05:54:37.545Z,23.49
2018-12-29T05:56:44.985Z,23.53
2018-12-29T05:58:53.612Z,23.47
2018-12-29T06:01:01.677Z,23.58
2018-12-29T06:03:09.756Z,23.54
2018-12-29T06:05:17.045Z,23.55
2018-12-29T06:07:24.596Z,23.44
2018-12-29T06:09:31.971Z,23.32
2018-12-29T06:11:39.400Z,23.46
2018-12-29T06:13:47.162Z,23.47
2018-12-29T06:15:54.724Z,23.54
2018-12-29T06:18:01.683Z,23.47
2018-12-29T06:20:09.405Z,23.24
2018-12-29T06:22:16.690Z,23.29
2018-12-29T06:24:23.982Z,23.38
2018-12-29T06:26:32.062Z,23.51
2018-12-29T06:28:39.402Z,23.59
2018-12-29T06:30:46.206Z,23.73
2018-12-29T06:32:53.366Z,23.82
2018-12-29T06:35:00.843Z,23.87
2018-12-29T06:37:07.522Z,24.01
2018-12-29T06:39:14.696Z,24.10
2018-12-29T06:41:21.756Z,24.20
2018-12-29T06:43:28.436Z,24.23
2018-12-29T06:45:36.246Z,24.31
2018-12-29T06:47:43.945Z,24.38
2018-12-29T06:49:51.210Z,24.46
2018-12-29T06:51:58.577Z,24.52
2018-12-29T06:54:05.716Z,24.34
2018-12-29T06:56:13.541Z,24.02
2018-12-29T06:58:20.770Z,24.23
2018-12-29T07:00:28.011Z,24.08
2018-12-29T07:02:35.100Z,23.85
2018-12-29T07:04:43.280Z,23.89
2018-12-29T07:06:51.434Z,23.87
2018-12-29T07:08:58.588Z,23.70
2018-12-29T07:11:06.032Z,23.59
2018-12-29T07:13:14.140Z,23.52
2018-12-29T07:15:21.755Z,23.61
2018-12-29T07:17:53.823Z,23.62
2018-12-29T07:20:27.829Z,23.54
2018-12-29T07:22:53.448Z,23.53
2018-12-29T07:25:00.951Z,23.51
2018-12-29T07:27:12.480Z,23.52
2018-12-29T07:29:19.548Z,23.45
2018-12-29T07:31:26.753Z,23.33
2018-12-29T07:33:34.815Z,23.43
2018-12-29T07:35:42.738Z,23.28
2018-12-29T07:37:50.223Z,23.41
2018-12-29T07:39:57.602Z,23.44
2018-12-29T07:42:04.966Z,23.59
2018-12-29T07:44:13.676Z,23.68
2018-12-29T07:46:20.835Z,23.80
2018-12-29T07:48:28.048Z,23.87
2018-12-29T07:50:35.313Z,24.00
2018-12-29T07:52:43.187Z,23.99
2018-12-29T07:54:50.419Z,23.86
2018-12-29T07:56:57.889Z,23.87
2018-12-29T07:59:05.488Z,23.88
2018-12-29T08:01:12.585Z,23.82
2018-12-29T08:03:19.845Z,23.88
2018-12-29T08:05:27.687Z,23.83
2018-12-29T08:07:35.509Z,23.67
2018-12-29T08:09:42.910Z,23.69
2018-12-29T08:11:50.185Z,23.64
2018-12-29T08:13:57.539Z,23.55
2018-12-29T08:16:05.036Z,23.51
2018-12-29T08:18:12.388Z,23.53
2018-12-29T08:20:19.633Z,23.32
2018-12-29T08:22:26.973Z,23.36
2018-12-29T08:24:34.100Z,23.31
2018-12-29T08:26:41.314Z,23.27
2018-12-29T08:28:49.318Z,23.20
2018-12-29T08:30:56.574Z,23.24
2018-12-29T08:33:04.110Z,23.28
2018-12-29T08:35:11.438Z,23.38
2018-12-29T08:37:18.503Z,23.51
2018-12-29T08:39:26.228Z,23.60
2018-12-29T08:41:33.335Z,23.75
2018-12-29T08:43:40.592Z,23.88
2018-12-29T08:45:47.867Z,23.69
2018-12-29T08:47:55.208Z,24.05
2018-12-29T08:50:02.355Z,23.99
2018-12-29T08:52:09.384Z,23.97
2018-12-29T08:54:16.984Z,23.89
2018-12-29T08:56:24.025Z,23.84
2018-12-29T08:58:31.325Z,23.80
2018-12-29T09:00:38.431Z,23.75
2018-12-29T09:02:45.721Z,23.67
2018-12-29T09:04:52.892Z,23.72
2018-12-29T09:07:00.275Z,23.58
2018-12-29T09:09:08.769Z,23.51
2018-12-29T09:11:15.997Z,23.48
2018-12-29T09:13:23.247Z,23.44
2018-12-29T09:15:30.261Z,23.43
2018-12-29T09:17:37.616Z,23.42
2018-12-29T09:19:45.798Z,23.33
2018-12-29T09:21:53.052Z,23.23
2018-12-29T09:24:00.357Z,23.18
2018-12-29T09:26:09.431Z,23.14
2018-12-29T09:28:17.024Z,23.25
2018-12-29T09:30:23.981Z,23.23
2018-12-29T09:32:31.143Z,23.28
2018-12-29T09:34:38.553Z,23.51
2018-12-29T09:36:45.455Z,23.59
2018-12-29T09:38:52.695Z,23.69
2018-12-29T09:40:59.904Z,23.78
2018-12-29T09:43:06.945Z,23.85
2018-12-29T09:45:14.093Z,23.70
2018-12-29T09:47:21.465Z,23.68
2018-12-29T09:49:28.830Z,23.60
2018-12-29T09:51:36.292Z,23.56
2018-12-29T09:53:43.327Z,23.53
2018-12-29T09:55:50.484Z,23.45
2018-12-29T09:57:57.633Z,23.41
2018-12-29T10:00:05.129Z,23.42
2018-12-29T10:02:12.540Z,23.40
2018-12-29T10:04:19.905Z,23.34
2018-12-29T10:06:27.014Z,23.27
2018-12-29T10:08:34.078Z,23.22
2018-12-29T10:10:41.339Z,23.20
2018-12-29T10:12:48.588Z,23.15
2018-12-29T10:14:55.580Z,23.18
2018-12-29T10:17:02.903Z,23.24
2018-12-29T10:19:09.999Z,23.45
2018-12-29T10:21:17.300Z,23.49
2018-12-29T10:23:24.358Z,23.60
2018-12-29T10:25:31.786Z,23.68
2018-12-29T10:27:39.017Z,23.76
2018-12-29T10:29:46.098Z,23.86
2018-12-29T10:31:54.135Z,23.91
2018-12-29T10:34:01.302Z,23.98
2018-12-29T10:36:08.553Z,23.96
2018-12-29T10:38:15.688Z,23.80
2018-12-29T10:40:23.618Z,23.72
2018-12-29T10:42:30.738Z,23.64
2018-12-29T10:44:38.047Z,23.66
2018-12-29T10:46:45.322Z,23.60
2018-12-29T10:48:52.680Z,23.58
2018-12-29T10:50:59.712Z,23.52
2018-12-29T10:53:06.856Z,23.41
2018-12-29T10:55:14.842Z,23.37
2018-12-29T10:57:22.288Z,23.42
2018-12-29T10:59:29.639Z,23.42
2018-12-29T11:01:36.836Z,23.39
2018-12-29T11:03:44.094Z,23.36
2018-12-29T11:05:52.147Z,23.48
2018-12-29T11:07:59.138Z,23.61
2018-12-29T11:10:06.493Z,23.70
2018-12-29T11:12:14.215Z,23.80
2018-12-29T11:14:21.341Z,23.84
2018-12-29T11:16:31.205Z,23.88
2018-12-29T11:18:38.555Z,23.79
2018-12-29T11:20:45.612Z,23.76
2018-12-29T11:22:53.044Z,23.61
2018-12-29T11:25:00.331Z,23.70
2018-12-29T11:27:07.689Z,23.67
2018-12-29T11:29:14.839Z,23.53
2018-12-29T11:31:21.978Z,23.53
2018-12-29T11:33:29.159Z,23.51
2018-12-29T11:35:36.387Z,23.44
2018-12-29T11:37:44.173Z,23.31
2018-12-29T11:39:51.538Z,23.28
2018-12-29T11:41:58.723Z,23.25
2018-12-29T11:44:05.794Z,23.24
2018-12-29T11:46:13.070Z,23.29
2018-12-29T11:48:20.486Z,23.36
2018-12-29T11:50:27.741Z,23.51
2018-12-29T11:52:34.702Z,23.57
2018-12-29T11:54:42.593Z,23.67
2018-12-29T11:56:50.453Z,23.72
2018-12-29T11:58:57.519Z,23.79
2018-12-29T12:01:05.420Z,23.88
2018-12-29T12:03:13.209Z,23.96
2018-12-29T12:05:20.404Z,24.07
2018-12-29T12:07:27.678Z,24.12
2018-12-29T12:09:34.963Z,24.00
2018-12-29T12:11:42.425Z,23.94
2018-12-29T12:13:49.548Z,23.83
2018-12-29T12:15:56.724Z,23.72
2018-12-29T12:18:03.733Z,23.73
2018-12-29T12:20:11.209Z,23.71
2018-12-29T12:22:18.657Z,23.68
2018-12-29T12:24:26.217Z,23.64
2018-12-29T12:26:33.827Z,23.51
2018-12-29T12:28:40.936Z,23.49
2018-12-29T12:30:47.975Z,23.50
2018-12-29T12:32:55.636Z,23.48
2018-12-29T12:35:02.757Z,23.40
2018-12-29T12:37:09.900Z,23.48
2018-12-29T12:39:17.280Z,23.54
2018-12-29T12:41:24.489Z,23.63
2018-12-29T12:43:32.014Z,23.73
2018-12-29T12:45:39.548Z,23.80
2018-12-29T12:47:46.999Z,23.92
2018-12-29T12:49:54.113Z,24.00
2018-12-29T12:52:01.397Z,24.06
2018-12-29T12:54:09.191Z,24.14
2018-12-29T12:56:16.431Z,24.23
2018-12-29T12:58:23.540Z,24.32
2018-12-29T13:00:30.884Z,24.35
2018-12-29T13:02:38.252Z,24.38
2018-12-29T13:04:45.576Z,24.46
2018-12-29T13:06:52.683Z,24.47
2018-12-29T13:08:59.873Z,24.57
2018-12-29T13:11:07.389Z,24.59
2018-12-29T13:13:14.636Z,24.63
2018-12-29T13:15:22.869Z,24.61
2018-12-29T13:17:30.280Z,24.70
2018-12-29T13:19:37.587Z,24.75
2018-12-29T13:21:45.644Z,24.90
2018-12-29T13:23:52.990Z,24.94
2018-12-29T13:26:00.614Z,24.95
2018-12-29T13:28:07.999Z,25.03
2018-12-29T13:30:15.725Z,25.05
2018-12-29T13:32:22.807Z,25.07
2018-12-29T13:34:29.926Z,24.97
2018-12-29T13:36:37.196Z,24.74
2018-12-29T13:38:44.491Z,24.71
2018-12-29T13:40:51.871Z,24.60
2018-12-29T13:42:59.014Z,24.47
2018-12-29T13:45:08.360Z,24.42
2018-12-29T13:47:15.595Z,24.38
2018-12-29T13:49:24.252Z,24.43
2018-12-29T13:51:32.217Z,24.48
2018-12-29T13:53:39.892Z,24.54
2018-12-29T13:55:46.962Z,24.64
2018-12-29T13:57:54.661Z,24.66
2018-12-29T14:00:02.349Z,24.77
2018-12-29T14:02:10.248Z,24.87
2018-12-29T14:04:18.224Z,24.92
2018-12-29T14:06:27.553Z,24.87
2018-12-29T14:08:34.717Z,24.53
2018-12-29T14:10:42.261Z,24.53
2018-12-29T14:12:49.773Z,24.61
2018-12-29T14:14:57.301Z,24.51
2018-12-29T14:17:04.443Z,24.48
2018-12-29T14:19:11.562Z,24.36
2018-12-29T14:21:19.606Z,24.29
2018-12-29T14:23:26.948Z,24.32
2018-12-29T14:25:34.241Z,24.39
2018-12-29T14:27:41.879Z,24.47
2018-12-29T14:29:50.074Z,24.64
2018-12-29T14:31:57.994Z,24.85
2018-12-29T14:34:05.115Z,24.96
2018-12-29T14:36:12.483Z,25.06
2018-12-29T14:38:19.941Z,25.05
2018-12-29T14:40:27.021Z,24.96
2018-12-29T14:42:34.168Z,24.84
2018-12-29T14:44:41.496Z,24.76
2018-12-29T14:46:49.879Z,24.65
2018-12-29T14:48:57.348Z,24.60
2018-12-29T14:51:05.675Z,24.48
2018-12-29T14:53:13.020Z,24.44
2018-12-29T14:55:20.362Z,24.46
2018-12-29T14:57:27.426Z,24.38
2018-12-29T14:59:34.672Z,24.36
2018-12-29T15:01:42.066Z,24.25
2018-12-29T15:03:54.302Z,24.40
2018-12-29T15:06:01.781Z,24.50
2018-12-29T15:08:09.412Z,24.58
2018-12-29T15:10:16.926Z,24.65
2018-12-29T15:12:24.326Z,24.78
2018-12-29T15:14:31.959Z,24.86
2018-12-29T15:16:39.155Z,24.96
2018-12-29T15:18:46.628Z,25.08
2018-12-29T15:20:54.275Z,25.16
2018-12-29T15:23:01.545Z,25.11
2018-12-29T15:25:09.391Z,25.06
2018-12-29T15:27:17.099Z,25.02
2018-12-29T15:29:24.391Z,25.13
2018-12-29T15:31:31.764Z,25.02
2018-12-29T15:33:39.322Z,24.91
2018-12-29T15:35:46.971Z,24.75
2018-12-29T15:37:54.421Z,24.77
2018-12-29T15:40:01.715Z,24.68
2018-12-29T15:42:31.279Z,24.75
2018-12-29T15:44:39.388Z,24.76
2018-12-29T15:46:47.456Z,24.74
2018-12-29T15:48:55.146Z,24.68
2018-12-29T15:51:03.100Z,24.62
2018-12-29T15:53:10.999Z,24.75
2018-12-29T15:55:24.754Z,24.89
2018-12-29T15:57:32.569Z,25.10
2018-12-29T15:59:40.991Z,25.29
2018-12-29T16:01:48.440Z,25.43
2018-12-29T16:03:55.488Z,25.57
2018-12-29T16:06:06.092Z,25.74
2018-12-29T16:08:13.633Z,25.73
2018-12-29T16:10:20.929Z,25.73
2018-12-29T16:12:28.263Z,25.61
2018-12-29T16:14:35.745Z,25.49
2018-12-29T16:16:42.993Z,25.55
2018-12-29T16:19:04.035Z,25.29
2018-12-29T16:21:11.515Z,25.38
2018-12-29T16:23:19.135Z,25.41
2018-12-29T16:25:27.078Z,25.39
2018-12-29T16:27:34.710Z,25.34
2018-12-29T16:29:42.819Z,25.31
2018-12-29T16:31:50.742Z,25.17
2018-12-29T16:36:11.416Z,25.30
2018-12-29T16:38:18.999Z,25.23
2018-12-29T16:40:26.479Z,25.29
2018-12-29T16:42:52.284Z,25.21
2018-12-29T16:45:00.177Z,25.21
2018-12-29T16:47:08.842Z,25.17
2018-12-29T16:49:16.832Z,25.24
2018-12-29T16:51:25.891Z,25.26
2018-12-29T16:53:33.626Z,25.33
2018-12-29T16:55:41.429Z,25.38
2018-12-29T16:58:10.260Z,25.39
2018-12-29T17:00:22.819Z,25.13
2018-12-29T17:04:55.900Z,25.68
2018-12-29T17:07:14.611Z,25.83
2018-12-29T17:09:21.787Z,25.89
2018-12-29T17:11:28.797Z,26.04
2018-12-29T17:13:37.890Z,26.09
2018-12-29T17:15:46.859Z,26.12
2018-12-29T17:18:00.718Z,26.16
2018-12-29T17:20:12.935Z,26.19
2018-12-29T17:22:24.557Z,26.17
2018-12-29T17:24:33.829Z,26.08
2018-12-29T17:26:42.998Z,26.06
2018-12-29T17:28:50.308Z,25.97
2018-12-29T17:31:01.170Z,25.85
2018-12-29T17:33:09.015Z,25.75
2018-12-29T17:35:19.371Z,25.68
2018-12-29T17:37:28.333Z,25.56
2018-12-29T17:39:36.465Z,25.15
2018-12-29T17:41:46.493Z,25.55
2018-12-29T17:43:53.856Z,25.59
2018-12-29T17:46:10.809Z,25.62
2018-12-29T17:48:20.347Z,25.49
2018-12-29T17:50:29.503Z,25.61
2018-12-29T17:52:41.915Z,25.51
2018-12-29T17:54:52.001Z,25.45
2018-12-29T17:57:02.336Z,25.40
2018-12-29T17:59:11.034Z,25.46
2018-12-29T18:01:32.017Z,25.38
2018-12-29T18:03:40.374Z,25.32
2018-12-29T18:06:10.916Z,25.18
2018-12-29T18:08:24.991Z,25.15
2018-12-29T18:10:36.020Z,25.07
2018-12-29T18:12:51.281Z,24.77
2018-12-29T18:15:01.583Z,24.98
2018-12-29T18:17:15.114Z,24.89
2018-12-29T18:19:30.480Z,24.77
2018-12-29T18:21:34.831Z,24.66
2018-12-29T18:23:43.691Z,24.36
2018-12-29T18:26:10.858Z,24.67
2018-12-29T18:28:16.859Z,24.86
2018-12-29T18:30:26.066Z,25.21
2018-12-29T18:32:33.366Z,25.46
2018-12-29T18:34:42.023Z,25.72
2018-12-29T18:36:54.241Z,25.87
2018-12-29T18:39:05.312Z,26.04
2018-12-29T18:41:16.256Z,26.15
2018-12-29T18:43:23.527Z,26.01
2018-12-29T18:45:45.180Z,25.89
2018-12-29T18:47:54.036Z,25.68
2018-12-29T18:50:04.053Z,25.53
2018-12-29T18:52:13.468Z,25.10
2018-12-29T18:54:22.398Z,25.17
2018-12-29T18:56:33.692Z,25.02
2018-12-29T18:58:42.521Z,25.01
2018-12-29T19:00:51.761Z,25.17
2018-12-29T19:03:01.907Z,25.27
2018-12-29T19:05:36.290Z,25.34
2018-12-29T19:07:43.534Z,25.18
2018-12-29T19:09:51.158Z,25.26
2018-12-29T19:12:11.321Z,25.28
2018-12-29T19:14:17.771Z,25.29
2018-12-29T19:16:28.245Z,25.27
2018-12-29T19:18:41.999Z,25.14
2018-12-29T19:20:52.029Z,25.18
2018-12-29T19:23:01.905Z,25.16
2018-12-29T19:25:11.364Z,25.06
2018-12-29T19:27:33.024Z,25.00
2018-12-29T19:29:46.208Z,24.98
2018-12-29T19:32:03.322Z,25.08
2018-12-29T19:34:44.465Z,25.19
2018-12-29T19:36:25.103Z,25.17
2018-12-29T19:38:34.520Z,25.06
2018-12-29T19:40:41.775Z,25.18
2018-12-29T19:42:55.076Z,25.12
2018-12-29T19:45:06.908Z,25.10
2018-12-29T19:47:19.441Z,25.08
2018-12-29T19:49:26.833Z,25.03
2018-12-29T19:51:35.239Z,25.09
2018-12-29T19:53:43.813Z,25.10
2018-12-29T19:55:54.927Z,25.08
2018-12-29T19:58:02.942Z,25.29
2018-12-29T20:00:14.000Z,25.33
2018-12-29T20:02:22.265Z,25.35
2018-12-29T20:04:46.039Z,25.51
2018-12-29T20:06:58.136Z,25.73
2018-12-29T20:09:10.743Z,25.83
2018-12-29T20:11:20.714Z,25.84
2018-12-29T20:13:27.800Z,25.99
2018-12-29T20:15:36.571Z,26.10
2018-12-29T20:17:43.722Z,26.18
2018-12-29T20:19:50.883Z,26.15
2018-12-29T20:21:58.793Z,26.09
2018-12-29T20:24:07.074Z,26.03
2018-12-29T20:26:17.115Z,25.92
2018-12-29T20:28:24.911Z,25.84
2018-12-29T20:30:32.823Z,25.73
2018-12-29T20:32:40.120Z,25.78
2018-12-29T20:34:47.349Z,25.76
2018-12-29T20:36:55.551Z,25.74
2018-12-29T20:39:02.740Z,25.70
2018-12-29T20:41:10.084Z,25.57
2018-12-29T20:43:17.977Z,25.51
2018-12-29T20:45:25.135Z,25.47
2018-12-29T20:47:34.782Z,25.45
2018-12-29T20:49:43.328Z,25.29
2018-12-29T20:51:51.416Z,25.11
2018-12-29T20:53:59.985Z,25.16
2018-12-29T20:56:09.279Z,25.13
2018-12-29T20:58:21.414Z,25.28
2018-12-29T21:00:28.490Z,25.03
2018-12-29T21:02:35.886Z,25.03
2018-12-29T21:04:44.488Z,24.90
2018-12-29T21:06:52.330Z,24.98
2018-12-29T21:08:59.489Z,24.90
2018-12-29T21:11:09.859Z,24.94
2018-12-29T21:13:20.805Z,24.97
2018-12-29T21:15:31.449Z,24.97
2018-12-29T21:17:42.521Z,25.08
2018-12-29T21:19:54.693Z,24.70
2018-12-29T21:22:04.886Z,25.45
2018-12-29T21:24:19.597Z,25.57
2018-12-29T21:26:38.427Z,25.64
2018-12-29T21:28:50.717Z,25.73
2018-12-29T21:31:01.111Z,25.80
2018-12-29T21:33:10.219Z,25.88
2018-12-29T21:35:24.206Z,26.03
2018-12-29T21:37:39.125Z,26.05
2018-12-29T21:39:54.760Z,25.99
2018-12-29T21:42:03.257Z,25.97
2018-12-29T21:44:13.202Z,25.90
2018-12-29T21:46:23.482Z,25.96
2018-12-29T21:48:33.610Z,25.89
2018-12-29T21:50:53.133Z,25.86
2018-12-29T21:53:04.532Z,25.84
2018-12-29T21:55:12.083Z,25.66
2018-12-29T21:57:19.237Z,25.55
2018-12-29T21:59:31.876Z,25.64
2018-12-29T22:01:41.412Z,25.53
2018-12-29T22:04:11.052Z,25.50
2018-12-29T22:06:28.677Z,25.10
2018-12-29T22:08:44.259Z,24.89
2018-12-29T22:10:56.109Z,25.08
2018-12-29T22:13:03.646Z,25.08
2018-12-29T22:15:11.642Z,25.03
2018-12-29T22:17:18.973Z,25.00
2018-12-29T22:19:36.559Z,25.14
2018-12-29T22:21:48.525Z,25.31
2018-12-29T22:23:55.303Z,25.46
2018-12-29T22:26:07.697Z,25.59
2018-12-29T22:28:15.138Z,25.78
2018-12-29T22:30:22.995Z,25.83
2018-12-29T22:32:31.921Z,25.81
2018-12-29T22:34:42.643Z,25.79
2018-12-29T22:36:54.665Z,25.79
2018-12-29T22:39:01.934Z,25.77
2018-12-29T22:42:46.438Z,25.76
2018-12-29T22:43:21.318Z,25.74
2018-12-29T22:45:31.312Z,25.74
2018-12-29T22:47:39.315Z,25.62
2018-12-29T22:49:47.880Z,25.50
2018-12-29T22:51:58.693Z,25.47
2018-12-29T22:54:08.803Z,25.32
2018-12-29T22:56:19.643Z,25.24
2018-12-29T22:58:39.681Z,25.21
2018-12-29T23:00:49.488Z,25.16
2018-12-29T23:02:57.533Z,25.11
2018-12-29T23:05:04.842Z,25.04
2018-12-29T23:07:12.385Z,24.99
2018-12-29T23:09:19.706Z,25.12
2018-12-29T23:11:26.913Z,25.12
2018-12-29T23:13:38.114Z,25.23
2018-12-29T23:15:55.985Z,25.40
2018-12-29T23:18:07.559Z,25.50
2018-12-29T23:20:31.868Z,25.60
2018-12-29T23:22:45.035Z,25.72
2018-12-29T23:24:56.763Z,25.58
2018-12-29T23:27:10.220Z,25.61
2018-12-29T23:29:30.155Z,25.58
2018-12-29T23:31:38.560Z,25.54
2018-12-29T23:33:46.579Z,25.37
2018-12-29T23:35:59.859Z,25.37
2018-12-29T23:38:12.351Z,25.37
2018-12-29T23:40:22.410Z,25.24
2018-12-29T23:42:42.418Z,25.04
2018-12-29T23:44:54.369Z,24.84
2018-12-29T23:47:07.962Z,24.96
2018-12-29T23:49:17.323Z,24.81
2018-12-29T23:51:33.470Z,24.84
2018-12-29T23:53:42.253Z,25.00
2018-12-29T23:55:54.955Z,24.96
2018-12-29T23:58:05.819Z,24.98
